KAMN/AMN METAR and TAF weather

Enter ICAO airport designator
Station Type Date Time Source
KAMN METAR 2018/07/21 11:39 UTC NOAA

KAMN 211139Z AUTO 10005KT 10SM OVC018 20/18 A2974 RMK AO2 T01970181


Station Type Date Time Source
KAMN Decoded METAR 2018/07/21 11:39 UTC NOAA

Alma, Gratiot Community Airport, MI, United States (KAMN) 43-19-19N 084-41-16W
Jul 21, 2018 - 07:39 AM EDT / 2018.07.21 1139 UTC
Wind: from the E (100 degrees) at 6 MPH (5 KT):0
Visibility: 10 mile(s):0
Sky conditions: overcast
Temperature: 67.5 F (19.7 C)
Dew Point: 64.6 F (18.1 C)
Relative Humidity: 90%
Pressure (altimeter): 29.74 in. Hg (1007 hPa)
ob: KAMN 211139Z AUTO 10005KT 10SM OVC018 20/18 A2974 RMK AO2 T01970181
cycle: 11

Station Type Date Time Source
KAMN TAF UTC NOAA

Error!


Example: see airport list